Time;durP1;ratioP1;P1;durP2;ratioP2;P2;SDS_P1;SDS_P2;PMS_P1;PMS_P2;Temp;Humidity;BMP_temperature;BMP_pressure;BME280_temperature;BME280_humidity;BME280_pressure;Samples;Min_cycle;Max_cycle;Signal;HPM_P1;HPM_P2
2021/10/28 00:12:15;;;;;;;2.72;1.15;;;;;;;;;;5009559;28;20274;-71
2021/10/28 00:14:43;;;;;;;0.70;0.70;;;;;;;;;;5011521;28;20179;-72
2021/10/28 00:17:11;;;;;;;1.13;1.10;;;;;;;;;;5008151;28;20272;-72
2021/10/28 00:19:37;;;;;;;0.73;0.73;;;;;;;;;;5009537;28;20269;-71
2021/10/28 00:22:04;;;;;;;2.80;1.55;;;;;;;;;;5021054;28;20191;-72
2021/10/28 00:24:30;;;;;;;1.08;1.08;;;;;;;;;;5009334;28;20207;-71
2021/10/28 00:26:56;;;;;;;0.73;0.73;;;;;;;;;;5007992;28;20714;-72
2021/10/28 00:29:23;;;;;;;4.55;1.83;;;;;;;;;;5012405;28;20452;-73
2021/10/28 00:31:50;;;;;;;2.95;2.30;;;;;;;;;;5011678;28;20677;-72
2021/10/28 00:34:17;;;;;;;2.85;1.65;;;;;;;;;;5008779;28;20186;-71
2021/10/28 00:36:45;;;;;;;1.85;1.73;;;;;;;;;;5011088;28;20187;-72
2021/10/28 00:39:11;;;;;;;0.80;0.80;;;;;;;;;;5004295;28;20213;-72
2021/10/28 00:41:38;;;;;;;1.90;1.80;;;;;;;;;;5011526;28;20430;-71
2021/10/28 00:44:04;;;;;;;1.77;1.67;;;;;;;;;;5011335;28;20221;-72
2021/10/28 00:46:32;;;;;;;11.30;1.45;;;;;;;;;;5008102;28;20183;-72
2021/10/28 00:48:59;;;;;;;2.88;2.65;;;;;;;;;;5011228;28;20274;-73
2021/10/28 00:51:26;;;;;;;0.80;0.80;;;;;;;;;;5009960;28;20561;-71
2021/10/28 00:53:52;;;;;;;1.13;0.88;;;;;;;;;;5010555;28;20265;-72
2021/10/28 00:56:20;;;;;;;3.25;1.77;;;;;;;;;;5008591;28;20187;-72
2021/10/28 00:58:46;;;;;;;0.98;0.98;;;;;;;;;;5008836;28;20293;-72
2021/10/28 01:01:12;;;;;;;0.60;0.60;;;;;;;;;;5010651;28;20201;-72
2021/10/28 01:03:39;;;;;;;1.65;1.17;;;;;;;;;;5010495;28;20586;-72
2021/10/28 01:06:05;;;;;;;2.17;2.00;;;;;;;;;;5010014;28;20196;-72
2021/10/28 01:08:32;;;;;;;0.90;0.90;;;;;;;;;;5007490;28;20224;-71
2021/10/28 01:10:58;;;;;;;1.60;1.50;;;;;;;;;;5009225;28;20435;-72
2021/10/28 01:13:24;;;;;;;0.70;0.70;;;;;;;;;;5010577;28;20241;-72
2021/10/28 01:15:53;;;;;;;0.70;0.70;;;;;;;;;;5009272;28;20186;-72
2021/10/28 01:18:19;;;;;;;1.52;1.50;;;;;;;;;;5008199;28;20595;-72
2021/10/28 01:20:47;;;;;;;0.70;0.70;;;;;;;;;;5009811;28;20182;-72
2021/10/28 01:23:13;;;;;;;0.77;0.77;;;;;;;;;;5026883;28;20796;-72
2021/10/28 01:25:40;;;;;;;2.25;1.90;;;;;;;;;;5008217;28;20183;-72
2021/10/28 01:28:07;;;;;;;3.53;2.58;;;;;;;;;;5007068;28;20210;-72
2021/10/28 01:30:33;;;;;;;0.60;0.60;;;;;;;;;;5010623;28;20646;-72
2021/10/28 01:32:59;;;;;;;0.60;0.60;;;;;;;;;;5010242;28;20318;-72
2021/10/28 01:35:25;;;;;;;1.33;1.10;;;;;;;;;;5009972;28;20444;-72
2021/10/28 01:37:51;;;;;;;0.85;0.85;;;;;;;;;;5012894;28;20453;-72
2021/10/28 01:40:17;;;;;;;2.92;1.20;;;;;;;;;;5013107;28;20912;-72
2021/10/28 01:42:50;;;;;;;1.10;1.10;;;;;;;;;;5013430;28;20210;-72
2021/10/28 01:45:20;;;;;;;1.25;1.15;;;;;;;;;;5005821;28;20825;-73
2021/10/28 01:47:46;;;;;;;1.90;1.80;;;;;;;;;;5012141;28;20206;-72
2021/10/28 01:50:12;;;;;;;0.70;0.70;;;;;;;;;;5011557;28;20560;-72
2021/10/28 01:52:39;;;;;;;6.88;3.33;;;;;;;;;;5021304;28;20677;-72
2021/10/28 01:55:15;;;;;;;3.80;2.20;;;;;;;;;;5021864;28;20419;-72
2021/10/28 01:57:41;;;;;;;0.70;0.70;;;;;;;;;;5012054;28;20187;-72
2021/10/28 02:00:15;;;;;;;1.67;1.50;;;;;;;;;;5013791;28;20258;-72
2021/10/28 02:02:42;;;;;;;0.90;0.90;;;;;;;;;;5013667;28;20206;-72
2021/10/28 02:05:09;;;;;;;0.70;0.70;;;;;;;;;;5012326;28;20186;-72
2021/10/28 02:07:35;;;;;;;3.45;2.25;;;;;;;;;;5011928;28;20210;-73
2021/10/28 02:10:01;;;;;;;3.42;1.65;;;;;;;;;;5013880;28;20676;-71
2021/10/28 02:12:27;;;;;;;2.95;1.13;;;;;;;;;;5011343;28;20455;-72
2021/10/28 02:14:53;;;;;;;1.67;0.97;;;;;;;;;;5014360;28;20215;-72
2021/10/28 02:17:18;;;;;;;1.67;1.60;;;;;;;;;;5008339;28;20438;-73
2021/10/28 02:19:44;;;;;;;2.20;1.80;;;;;;;;;;5011073;28;20674;-72
2021/10/28 02:22:10;;;;;;;1.10;1.10;;;;;;;;;;5021052;28;20968;-72
2021/10/28 02:24:36;;;;;;;1.47;1.20;;;;;;;;;;5011453;28;20582;-73
2021/10/28 02:27:02;;;;;;;2.93;2.63;;;;;;;;;;5012027;28;20465;-72
2021/10/28 02:29:28;;;;;;;0.82;0.82;;;;;;;;;;5011530;28;20489;-71
2021/10/28 02:31:54;;;;;;;2.00;1.90;;;;;;;;;;5008336;28;20222;-72
2021/10/28 02:34:20;;;;;;;3.53;1.83;;;;;;;;;;5011754;28;20426;-72
2021/10/28 02:36:46;;;;;;;1.70;1.50;;;;;;;;;;5010382;28;20839;-72
2021/10/28 02:39:12;;;;;;;1.63;1.53;;;;;;;;;;5012314;28;20218;-72
2021/10/28 02:41:39;;;;;;;0.77;0.77;;;;;;;;;;5013310;28;20443;-72
2021/10/28 02:44:05;;;;;;;2.22;1.20;;;;;;;;;;5013275;28;20938;-72
2021/10/28 02:46:31;;;;;;;1.40;1.30;;;;;;;;;;5010957;28;20291;-73
2021/10/28 02:48:57;;;;;;;4.15;1.67;;;;;;;;;;5010819;28;20459;-71
2021/10/28 02:51:23;;;;;;;4.57;1.60;;;;;;;;;;5017757;28;20186;-73
2021/10/28 02:53:49;;;;;;;1.00;1.00;;;;;;;;;;5029164;28;20435;-72
2021/10/28 02:56:16;;;;;;;3.50;1.70;;;;;;;;;;5012313;28;20423;-72
2021/10/28 02:58:42;;;;;;;1.17;1.17;;;;;;;;;;5012483;28;20226;-73
2021/10/28 03:01:08;;;;;;;4.13;1.30;;;;;;;;;;5011536;28;20187;-72
2021/10/28 03:03:35;;;;;;;2.30;1.88;;;;;;;;;;5010864;28;20450;-72
2021/10/28 03:06:01;;;;;;;1.52;1.42;;;;;;;;;;5012560;28;20191;-72
2021/10/28 03:08:29;;;;;;;4.83;4.50;;;;;;;;;;5012802;28;20197;-72
2021/10/28 03:10:55;;;;;;;1.85;1.23;;;;;;;;;;5012149;28;20496;-71
2021/10/28 03:13:21;;;;;;;1.70;1.60;;;;;;;;;;5012462;28;20189;-72
2021/10/28 03:15:48;;;;;;;1.60;1.07;;;;;;;;;;5012257;28;20837;-71
2021/10/28 03:26:29;;;;;;;0.73;0.73;;;;;;;;;;5010810;28;20221;-71
2021/10/28 03:28:55;;;;;;;3.17;1.95;;;;;;;;;;5011581;28;20919;-71
2021/10/28 03:31:21;;;;;;;0.97;0.97;;;;;;;;;;5011217;28;20240;-72
2021/10/28 03:33:50;;;;;;;2.40;1.90;;;;;;;;;;5013311;28;20446;-72
2021/10/28 03:36:27;;;;;;;2.78;2.63;;;;;;;;;;5012565;28;20500;-71
2021/10/28 03:39:08;;;;;;;2.80;1.70;;;;;;;;;;5009574;28;20552;-72
2021/10/28 03:42:17;;;;;;;1.40;1.30;;;;;;;;;;5012589;28;20189;-72
2021/10/28 03:47:23;;;;;;;1.85;1.75;;;;;;;;;;5010703;28;20384;-72
2021/10/28 03:53:07;;;;;;;2.53;2.10;;;;;;;;;;5008547;28;20407;-72
2021/10/28 04:28:53;;;;;;;2.20;2.00;;;;;;;;;;5013622;28;20421;-72
2021/10/28 04:30:16;;;;;;;2.90;1.75;;;;;;;;;;5004427;28;20499;-71
2021/10/28 04:32:43;;;;;;;1.33;1.23;;;;;;;;;;5003847;28;20987;-72
2021/10/28 04:35:09;;;;;;;3.92;1.17;;;;;;;;;;5017698;28;20179;-72
2021/10/28 04:37:37;;;;;;;1.08;1.08;;;;;;;;;;5011395;28;20249;-72
2021/10/28 04:40:03;;;;;;;2.05;1.95;;;;;;;;;;5012406;28;20276;-71
2021/10/28 04:42:29;;;;;;;2.60;2.40;;;;;;;;;;5011895;28;20418;-72
2021/10/28 04:44:55;;;;;;;1.63;1.27;;;;;;;;;;5011443;28;20411;-71
2021/10/28 04:47:21;;;;;;;2.60;2.40;;;;;;;;;;5010926;28;20418;-72
2021/10/28 04:49:47;;;;;;;3.00;2.80;;;;;;;;;;5011387;28;20494;-72
2021/10/28 04:52:22;;;;;;;2.03;1.93;;;;;;;;;;5020148;28;20182;-72
2021/10/28 04:54:49;;;;;;;5.43;1.95;;;;;;;;;;5015291;28;20518;-71
2021/10/28 04:57:15;;;;;;;1.27;1.17;;;;;;;;;;5011337;28;20187;-71
2021/10/28 04:59:41;;;;;;;7.38;3.35;;;;;;;;;;5011027;28;20458;-72
2021/10/28 05:02:07;;;;;;;4.18;1.98;;;;;;;;;;5010735;28;20498;-72
2021/10/28 05:04:33;;;;;;;1.55;1.00;;;;;;;;;;5009329;28;20212;-72
2021/10/28 05:06:59;;;;;;;6.40;2.10;;;;;;;;;;5011178;28;20554;-72
2021/10/28 05:09:29;;;;;;;1.92;1.73;;;;;;;;;;5010804;28;20499;-71
2021/10/28 05:11:56;;;;;;;1.80;1.10;;;;;;;;;;5005759;28;20977;-72
2021/10/28 05:14:22;;;;;;;2.10;1.80;;;;;;;;;;5014765;28;20458;-74
2021/10/28 05:16:51;;;;;;;2.33;2.13;;;;;;;;;;5013711;28;20419;-72
2021/10/28 05:19:17;;;;;;;2.97;2.08;;;;;;;;;;5012556;28;20222;-71
2021/10/28 05:21:43;;;;;;;1.83;1.63;;;;;;;;;;5013399;28;20534;-72
2021/10/28 05:24:09;;;;;;;7.33;3.70;;;;;;;;;;5014993;28;20209;-72
2021/10/28 05:26:35;;;;;;;1.33;1.23;;;;;;;;;;5013491;28;20473;-73
2021/10/28 05:29:01;;;;;;;1.10;1.00;;;;;;;;;;5016763;28;20209;-72
2021/10/28 05:31:27;;;;;;;1.27;1.20;;;;;;;;;;5010131;28;20438;-73
2021/10/28 05:33:53;;;;;;;1.90;1.50;;;;;;;;;;5014443;28;20822;-73
2021/10/28 05:36:19;;;;;;;3.95;2.30;;;;;;;;;;5011109;28;20423;-73
2021/10/28 05:38:45;;;;;;;1.10;1.00;;;;;;;;;;5014603;28;20268;-73
2021/10/28 05:41:11;;;;;;;2.97;1.83;;;;;;;;;;5013363;28;20442;-73
2021/10/28 05:43:37;;;;;;;0.75;0.75;;;;;;;;;;5015552;28;20552;-73
2021/10/28 05:46:03;;;;;;;4.68;2.60;;;;;;;;;;5014997;28;20232;-73
2021/10/28 05:48:29;;;;;;;0.70;0.70;;;;;;;;;;5014959;28;20191;-73
2021/10/28 05:50:55;;;;;;;0.70;0.70;;;;;;;;;;5016658;28;20631;-73
2021/10/28 05:53:21;;;;;;;3.60;3.30;;;;;;;;;;5026994;28;20425;-73
2021/10/28 05:55:48;;;;;;;2.22;1.10;;;;;;;;;;5030602;28;20573;-72
2021/10/28 05:58:14;;;;;;;3.90;2.22;;;;;;;;;;5013614;28;20215;-72
2021/10/28 06:00:40;;;;;;;1.07;1.07;;;;;;;;;;5015254;28;20646;-73
2021/10/28 06:03:06;;;;;;;3.33;1.92;;;;;;;;;;5013409;28;20536;-73
2021/10/28 06:05:32;;;;;;;1.60;1.50;;;;;;;;;;5014839;28;20178;-72
2021/10/28 06:07:58;;;;;;;2.03;1.52;;;;;;;;;;5015184;28;20429;-72
2021/10/28 06:10:24;;;;;;;1.83;1.00;;;;;;;;;;5017407;28;20172;-72
2021/10/28 06:12:53;;;;;;;1.60;1.50;;;;;;;;;;5017133;28;20789;-72
2021/10/28 06:15:20;;;;;;;1.05;1.05;;;;;;;;;;5017208;28;20197;-71
2021/10/28 06:18:01;;;;;;;2.03;1.92;;;;;;;;;;5024826;28;20268;-71
2021/10/28 06:20:27;;;;;;;10.50;1.92;;;;;;;;;;5010176;28;20182;-72
2021/10/28 06:22:54;;;;;;;1.48;1.38;;;;;;;;;;5024033;28;20233;-72
2021/10/28 06:25:20;;;;;;;2.50;1.58;;;;;;;;;;5027883;28;20170;-72
2021/10/28 06:27:46;;;;;;;7.80;3.10;;;;;;;;;;5032534;28;20198;-72
2021/10/28 06:30:13;;;;;;;1.52;1.42;;;;;;;;;;5026887;28;20234;-72
2021/10/28 06:32:49;;;;;;;0.60;0.60;;;;;;;;;;5014780;28;20175;-72
2021/10/28 06:35:15;;;;;;;2.28;2.17;;;;;;;;;;5015148;28;20232;-73
2021/10/28 06:37:47;;;;;;;1.63;1.52;;;;;;;;;;5013997;28;20214;-72
2021/10/28 06:40:13;;;;;;;4.00;2.40;;;;;;;;;;5014352;28;20194;-73
2021/10/28 06:42:39;;;;;;;0.80;0.80;;;;;;;;;;5014579;28;20171;-73
2021/10/28 06:45:05;;;;;;;1.80;1.70;;;;;;;;;;5014087;28;20182;-72
2021/10/28 06:47:31;;;;;;;1.70;1.17;;;;;;;;;;5013023;28;20794;-73
2021/10/28 06:49:59;;;;;;;1.20;0.97;;;;;;;;;;5013738;28;20174;-73
2021/10/28 06:52:35;;;;;;;1.35;1.25;;;;;;;;;;5020667;28;20412;-73
2021/10/28 06:55:06;;;;;;;0.60;0.60;;;;;;;;;;5032646;28;20269;-73
2021/10/28 06:57:57;;;;;;;1.40;1.33;;;;;;;;;;5027139;28;20185;-73
2021/10/28 07:03:06;;;;;;;0.70;0.70;;;;;;;;;;5013547;28;20779;-73
2021/10/28 07:05:32;;;;;;;0.90;0.90;;;;;;;;;;5013673;28;20179;-73
2021/10/28 07:07:58;;;;;;;3.15;1.38;;;;;;;;;;5012495;28;20202;-73
2021/10/28 07:10:25;;;;;;;1.25;1.15;;;;;;;;;;5013351;28;20245;-73
2021/10/28 07:17:59;;;;;;;0.70;0.70;;;;;;;;;;5012076;28;20203;-73
2021/10/28 07:36:34;;;;;;;3.08;2.05;;;;;;;;;;4992731;28;20192;-73
2021/10/28 08:14:42;;;;;;;1.92;1.83;;;;;;;;;;5012872;28;20171;-75
2021/10/28 08:19:55;;;;;;;1.45;1.15;;;;;;;;;;5012770;28;20682;-74
2021/10/28 08:22:25;;;;;;;3.83;2.92;;;;;;;;;;5014493;28;20186;-75
2021/10/28 08:30:17;;;;;;;0.90;0.90;;;;;;;;;;5013242;28;20648;-75
2021/10/28 08:32:44;;;;;;;0.90;0.90;;;;;;;;;;5012388;28;20273;-74
2021/10/28 08:35:10;;;;;;;8.35;1.92;;;;;;;;;;5012055;28;20306;-75
2021/10/28 08:37:56;;;;;;;4.32;1.25;;;;;;;;;;5011582;28;20669;-75
2021/10/28 08:40:22;;;;;;;0.60;0.60;;;;;;;;;;5012392;28;20213;-75
2021/10/28 08:42:48;;;;;;;2.95;2.75;;;;;;;;;;5011207;28;20187;-75
2021/10/28 08:45:18;;;;;;;4.28;3.03;;;;;;;;;;5014036;28;20173;-75
2021/10/28 08:47:47;;;;;;;1.88;1.77;;;;;;;;;;5017544;28;20181;-74
2021/10/28 08:50:20;;;;;;;0.90;0.70;;;;;;;;;;5015944;28;20208;-76
2021/10/28 08:53:07;;;;;;;1.98;1.88;;;;;;;;;;5024219;28;20201;-75
2021/10/28 08:55:38;;;;;;;2.78;2.45;;;;;;;;;;5038717;28;20629;-76
2021/10/28 09:25:30;;;;;;;0.90;0.90;;;;;;;;;;4998779;28;20187;-73
2021/10/28 09:30:34;;;;;;;2.60;2.40;;;;;;;;;;5018115;28;20185;-73
2021/10/28 09:33:08;;;;;;;1.35;1.25;;;;;;;;;;5017828;28;21130;-73
2021/10/28 09:44:04;;;;;;;1.42;1.42;;;;;;;;;;5018325;28;20253;-73
2021/10/28 09:46:42;;;;;;;2.85;1.77;;;;;;;;;;5021783;28;20697;-73
2021/10/28 09:51:52;;;;;;;2.72;2.47;;;;;;;;;;5025630;28;20186;-72
2021/10/28 09:59:50;;;;;;;1.73;1.20;;;;;;;;;;5014727;28;20236;-72
2021/10/28 10:02:25;;;;;;;0.95;0.85;;;;;;;;;;5014513;28;20651;-72
2021/10/28 10:04:51;;;;;;;0.98;0.98;;;;;;;;;;5011443;28;20611;-73
2021/10/28 10:07:19;;;;;;;1.50;1.40;;;;;;;;;;5011976;28;20186;-72
2021/10/28 10:09:46;;;;;;;1.92;1.58;;;;;;;;;;5014568;28;20194;-73
2021/10/28 10:12:12;;;;;;;1.80;1.70;;;;;;;;;;5012326;28;20233;-73
2021/10/28 10:14:39;;;;;;;1.45;0.95;;;;;;;;;;5010444;28;20175;-73
2021/10/28 10:17:06;;;;;;;2.45;2.33;;;;;;;;;;5012721;28;20199;-73
2021/10/28 10:19:36;;;;;;;2.97;1.40;;;;;;;;;;5008167;28;20246;-72
2021/10/28 10:22:18;;;;;;;1.13;1.00;;;;;;;;;;5016651;28;20195;-72
2021/10/28 11:21:48;;;;;;;1.17;1.02;;;;;;;;;;5018984;28;20201;-72
2021/10/28 11:32:54;;;;;;;1.25;1.00;;;;;;;;;;5007262;28;20729;-72
2021/10/28 12:01:34;;;;;;;3.20;1.73;;;;;;;;;;5012569;28;20182;-72
2021/10/28 12:23:42;;;;;;;1.43;1.33;;;;;;;;;;4944470;29;20461;-72
2021/10/28 13:02:31;;;;;;;3.13;1.50;;;;;;;;;;5009895;28;20438;-72
2021/10/28 13:48:09;;;;;;;1.07;1.00;;;;;;;;;;5012578;28;20463;-72
2021/10/28 13:49:08;;;;;;;1.47;1.37;;;;;;;;;;5007793;28;20526;-72
2021/10/28 13:52:36;;;;;;;1.20;1.10;;;;;;;;;;5009954;28;20429;-72
2021/10/28 13:57:21;;;;;;;1.23;1.13;;;;;;;;;;5014346;28;20844;-72
2021/10/28 14:00:18;;;;;;;1.05;1.05;;;;;;;;;;5010805;28;20459;-72
2021/10/28 14:27:59;;;;;;;0.95;0.95;;;;;;;;;;5013170;28;20415;-72
2021/10/28 14:33:21;;;;;;;0.70;0.70;;;;;;;;;;5014458;28;20424;-72
2021/10/28 14:38:28;;;;;;;3.67;3.50;;;;;;;;;;5013230;28;20203;-71
2021/10/28 15:03:30;;;;;;;3.83;3.63;;;;;;;;;;5005707;28;20274;-72
2021/10/28 15:27:57;;;;;;;0.93;0.70;;;;;;;;;;5018736;28;20189;-72
2021/10/28 15:30:41;;;;;;;1.65;1.55;;;;;;;;;;5012231;28;20192;-72
2021/10/28 15:35:55;;;;;;;16.73;1.50;;;;;;;;;;4992958;28;20221;-72
2021/10/28 17:42:56;;;;;;;3.90;2.30;;;;;;;;;;5067176;28;20441;-71
2021/10/28 17:45:27;;;;;;;4.23;2.37;;;;;;;;;;5066252;28;20506;-71
2021/10/28 17:47:54;;;;;;;2.80;2.60;;;;;;;;;;5068112;28;20398;-71
2021/10/28 17:50:21;;;;;;;2.95;1.83;;;;;;;;;;5060040;28;20419;-71
2021/10/28 17:52:47;;;;;;;6.60;3.10;;;;;;;;;;5071051;28;20959;-72
2021/10/28 17:55:13;;;;;;;3.80;2.47;;;;;;;;;;5073558;28;20443;-72
2021/10/28 17:57:40;;;;;;;2.90;2.70;;;;;;;;;;5055330;28;20432;-72
2021/10/28 18:00:07;;;;;;;3.80;2.97;;;;;;;;;;5048858;28;20424;-72
2021/10/28 18:02:34;;;;;;;4.82;2.63;;;;;;;;;;5048580;28;20428;-72
2021/10/28 18:05:00;;;;;;;3.45;2.10;;;;;;;;;;5056373;28;20886;-72
2021/10/28 18:07:26;;;;;;;4.72;2.42;;;;;;;;;;5064529;28;20478;-71
2021/10/28 18:09:52;;;;;;;3.28;2.22;;;;;;;;;;5058914;28;20911;-71
2021/10/28 18:12:18;;;;;;;2.83;2.53;;;;;;;;;;5077263;28;20405;-72
2021/10/28 18:14:44;;;;;;;2.58;2.38;;;;;;;;;;5078908;28;20450;-72
2021/10/28 18:17:11;;;;;;;2.60;2.40;;;;;;;;;;5069711;28;21034;-73
2021/10/28 18:19:38;;;;;;;3.90;2.80;;;;;;;;;;5047660;28;20417;-73
2021/10/28 18:22:05;;;;;;;2.50;2.30;;;;;;;;;;5063481;28;20490;-73
2021/10/28 18:24:31;;;;;;;1.65;1.55;;;;;;;;;;5056879;28;20467;-73
2021/10/28 18:26:57;;;;;;;3.70;2.58;;;;;;;;;;5051632;28;20504;-73
2021/10/28 18:29:23;;;;;;;3.40;2.75;;;;;;;;;;5059777;28;20957;-73
2021/10/28 18:31:50;;;;;;;2.60;2.27;;;;;;;;;;5067773;28;20470;-73
2021/10/28 18:34:16;;;;;;;4.28;2.30;;;;;;;;;;5078396;28;20504;-74
2021/10/28 18:36:44;;;;;;;2.25;2.15;;;;;;;;;;5062547;28;20416;-73
2021/10/28 18:39:11;;;;;;;4.93;2.65;;;;;;;;;;5048498;28;20471;-73
2021/10/28 18:41:37;;;;;;;3.40;2.60;;;;;;;;;;5049463;28;20508;-73
2021/10/28 18:44:04;;;;;;;3.10;2.60;;;;;;;;;;5052920;28;20420;-72
2021/10/28 18:46:33;;;;;;;2.95;2.75;;;;;;;;;;5067764;28;20410;-72
2021/10/28 18:49:00;;;;;;;5.03;2.50;;;;;;;;;;5052611;28;20415;-72
2021/10/28 18:51:26;;;;;;;3.38;3.08;;;;;;;;;;5053497;28;20793;-70
2021/10/28 18:53:53;;;;;;;3.13;2.53;;;;;;;;;;5061445;28;20411;-72
2021/10/28 18:56:20;;;;;;;1.70;1.60;;;;;;;;;;5054677;28;20225;-72
2021/10/28 18:58:46;;;;;;;3.10;1.75;;;;;;;;;;5046251;28;20417;-74
2021/10/28 19:01:15;;;;;;;3.00;1.90;;;;;;;;;;5058991;28;20417;-73
2021/10/28 19:03:42;;;;;;;7.15;2.58;;;;;;;;;;5064481;28;20505;-73
2021/10/28 19:06:09;;;;;;;4.70;2.65;;;;;;;;;;5042647;28;20500;-73
2021/10/28 19:08:37;;;;;;;1.80;1.20;;;;;;;;;;5054611;28;20434;-72
2021/10/28 19:11:04;;;;;;;2.60;2.40;;;;;;;;;;5045819;28;20431;-71
2021/10/28 19:13:30;;;;;;;2.40;2.20;;;;;;;;;;5048653;28;20431;-72
2021/10/28 19:15:56;;;;;;;4.73;2.10;;;;;;;;;;5048539;28;20772;-72
2021/10/28 19:18:23;;;;;;;4.63;3.22;;;;;;;;;;5049839;28;20832;-72
2021/10/28 19:20:49;;;;;;;3.20;2.10;;;;;;;;;;5046046;28;20423;-71
2021/10/28 19:23:14;;;;;;;3.33;2.60;;;;;;;;;;5046107;28;20415;-72
2021/10/28 19:25:41;;;;;;;4.93;2.83;;;;;;;;;;5047247;28;20425;-74
2021/10/28 19:28:08;;;;;;;2.90;2.53;;;;;;;;;;5049371;28;20475;-71
2021/10/28 19:30:43;;;;;;;3.88;3.35;;;;;;;;;;5049674;28;20423;-72
2021/10/28 19:33:16;;;;;;;2.80;2.53;;;;;;;;;;5043940;28;20494;-72
2021/10/28 19:35:46;;;;;;;3.42;2.38;;;;;;;;;;5032221;28;20805;-73
2021/10/28 19:41:34;;;;;;;3.43;2.50;;;;;;;;;;5032194;28;20424;-72
2021/10/28 19:46:27;;;;;;;2.78;2.28;;;;;;;;;;5033453;28;20963;-72
2021/10/28 19:48:53;;;;;;;3.22;2.20;;;;;;;;;;5042082;28;20497;-72
2021/10/28 19:51:20;;;;;;;4.35;3.22;;;;;;;;;;5046363;28;20428;-73
2021/10/28 19:53:47;;;;;;;3.10;2.50;;;;;;;;;;5062935;28;20850;-72
2021/10/28 19:56:15;;;;;;;3.67;2.30;;;;;;;;;;5051185;28;20595;-73
2021/10/28 19:58:46;;;;;;;3.95;2.80;;;;;;;;;;5042336;28;20514;-73
2021/10/28 20:01:29;;;;;;;2.03;1.83;;;;;;;;;;5052658;28;20424;-72
2021/10/28 20:04:12;;;;;;;3.40;2.25;;;;;;;;;;5034099;28;20478;-72
2021/10/28 20:20:19;;;;;;;3.03;2.60;;;;;;;;;;5034835;28;20505;-73
2021/10/28 20:22:46;;;;;;;3.40;3.20;;;;;;;;;;5059897;28;20466;-72
2021/10/28 20:25:13;;;;;;;3.70;3.10;;;;;;;;;;5051406;28;20471;-73
2021/10/28 20:27:40;;;;;;;4.30;2.50;;;;;;;;;;5048553;28;20894;-73
2021/10/28 20:30:09;;;;;;;3.85;2.22;;;;;;;;;;5045461;28;20420;-72
2021/10/28 20:32:35;;;;;;;2.53;2.33;;;;;;;;;;5053316;28;20494;-72
2021/10/28 20:37:30;;;;;;;2.80;2.42;;;;;;;;;;5043162;28;20911;-72
2021/10/28 20:39:56;;;;;;;2.57;2.27;;;;;;;;;;5039251;28;20453;-73
2021/10/28 20:42:22;;;;;;;3.55;1.70;;;;;;;;;;5040476;28;20435;-72
2021/10/28 20:44:49;;;;;;;4.78;3.38;;;;;;;;;;5041894;28;20905;-73
2021/10/28 20:47:15;;;;;;;3.43;2.00;;;;;;;;;;5045558;28;20467;-73
2021/10/28 20:49:41;;;;;;;3.83;2.80;;;;;;;;;;5046415;28;20420;-72
2021/10/28 20:52:08;;;;;;;2.80;2.30;;;;;;;;;;5041131;28;20536;-72
2021/10/28 20:54:34;;;;;;;2.15;2.05;;;;;;;;;;5038231;28;20425;-72
2021/10/28 20:57:03;;;;;;;3.80;2.30;;;;;;;;;;5050651;28;20422;-73
2021/10/28 20:59:29;;;;;;;2.78;1.15;;;;;;;;;;5041135;28;20444;-73
2021/10/28 21:01:56;;;;;;;2.88;2.58;;;;;;;;;;5049604;28;20495;-73
2021/10/28 21:04:22;;;;;;;3.33;2.53;;;;;;;;;;5044592;28;20423;-73
2021/10/28 21:06:48;;;;;;;2.50;2.30;;;;;;;;;;5049267;28;20485;-72
2021/10/28 21:09:14;;;;;;;4.72;2.63;;;;;;;;;;5054583;28;20425;-72
2021/10/28 21:11:40;;;;;;;1.90;1.80;;;;;;;;;;5058822;28;20549;-72
2021/10/28 21:14:07;;;;;;;4.55;2.50;;;;;;;;;;5053136;28;20479;-72
2021/10/28 21:16:33;;;;;;;3.53;3.22;;;;;;;;;;5039454;28;20786;-74
2021/10/28 21:19:00;;;;;;;1.98;1.75;;;;;;;;;;5053373;28;20425;-72
2021/10/28 21:21:26;;;;;;;1.90;1.50;;;;;;;;;;5052667;28;20869;-73
2021/10/28 21:23:52;;;;;;;2.42;2.10;;;;;;;;;;5056982;28;20788;-73
2021/10/28 21:26:18;;;;;;;2.40;2.00;;;;;;;;;;5037728;28;20428;-72
2021/10/28 21:28:44;;;;;;;2.70;2.47;;;;;;;;;;5035529;28;20417;-72
2021/10/28 21:31:11;;;;;;;2.70;2.40;;;;;;;;;;5033520;28;20436;-73
2021/10/28 21:33:37;;;;;;;2.03;1.65;;;;;;;;;;5043788;28;20765;-73
2021/10/28 21:36:03;;;;;;;4.60;2.92;;;;;;;;;;5034450;28;20958;-72
2021/10/28 21:38:29;;;;;;;3.00;2.78;;;;;;;;;;5048528;28;20451;-72
2021/10/28 21:40:55;;;;;;;2.42;2.22;;;;;;;;;;5034096;28;20460;-71
2021/10/28 21:43:22;;;;;;;3.10;2.40;;;;;;;;;;5039864;28;20429;-71
2021/10/28 21:45:51;;;;;;;2.83;2.63;;;;;;;;;;5030717;28;20406;-71
2021/10/28 21:48:17;;;;;;;2.70;2.50;;;;;;;;;;5038195;28;20430;-71
2021/10/28 21:50:43;;;;;;;1.63;1.52;;;;;;;;;;5029044;28;20421;-72
2021/10/28 21:53:14;;;;;;;3.53;2.10;;;;;;;;;;5050458;28;20892;-71
2021/10/28 22:04:21;;;;;;;2.90;2.30;;;;;;;;;;5047236;28;20496;-73
2021/10/28 22:07:08;;;;;;;4.82;2.40;;;;;;;;;;5030942;28;20413;-72
2021/10/28 22:25:44;;;;;;;3.55;2.70;;;;;;;;;;5042382;28;20428;-71
2021/10/28 22:28:10;;;;;;;2.92;2.20;;;;;;;;;;5032235;28;20417;-72
2021/10/28 22:30:36;;;;;;;3.22;2.10;;;;;;;;;;5035782;28;20885;-72
2021/10/28 22:33:02;;;;;;;3.03;2.33;;;;;;;;;;5038917;28;20481;-73
2021/10/28 22:35:34;;;;;;;3.67;2.07;;;;;;;;;;5035241;28;20413;-71
2021/10/28 22:38:05;;;;;;;1.60;1.50;;;;;;;;;;5037124;28;20402;-71
2021/10/28 22:40:35;;;;;;;5.05;2.40;;;;;;;;;;5043181;28;20903;-72
2021/10/28 22:43:06;;;;;;;2.05;1.60;;;;;;;;;;5037696;28;20421;-72
2021/10/28 22:45:33;;;;;;;3.90;2.20;;;;;;;;;;5035401;28;20423;-72
2021/10/28 22:47:59;;;;;;;3.03;2.25;;;;;;;;;;5034467;28;20398;-72
2021/10/28 22:50:26;;;;;;;3.90;3.20;;;;;;;;;;5038636;28;20472;-73
2021/10/28 22:52:52;;;;;;;2.47;2.00;;;;;;;;;;5044062;28;20427;-72
2021/10/28 22:55:18;;;;;;;3.58;2.60;;;;;;;;;;5052820;28;20412;-73
2021/10/28 22:57:53;;;;;;;2.55;2.08;;;;;;;;;;5053614;28;21088;-73
2021/10/28 23:00:25;;;;;;;1.27;1.17;;;;;;;;;;5036630;28;20217;-72
2021/10/28 23:03:08;;;;;;;3.40;2.55;;;;;;;;;;5035260;28;20492;-73
2021/10/28 23:21:37;;;;;;;4.40;2.15;;;;;;;;;;5043016;28;20462;-71
2021/10/28 23:24:03;;;;;;;0.70;0.70;;;;;;;;;;5047651;28;20087;-71
2021/10/28 23:26:29;;;;;;;1.95;1.65;;;;;;;;;;5033077;28;20217;-71
2021/10/28 23:28:55;;;;;;;1.63;1.52;;;;;;;;;;5049915;28;20447;-71
2021/10/28 23:31:21;;;;;;;1.98;1.55;;;;;;;;;;5055180;28;20218;-73
2021/10/28 23:33:47;;;;;;;1.50;1.40;;;;;;;;;;5044025;28;20421;-73
2021/10/28 23:36:13;;;;;;;2.57;1.43;;;;;;;;;;5042068;28;20440;-72
2021/10/28 23:38:39;;;;;;;1.10;1.10;;;;;;;;;;5054916;28;20792;-72
2021/10/28 23:41:04;;;;;;;1.60;1.50;;;;;;;;;;5053538;28;20493;-72
2021/10/28 23:43:30;;;;;;;3.30;1.98;;;;;;;;;;5047144;28;20432;-72
2021/10/28 23:45:56;;;;;;;3.40;1.70;;;;;;;;;;5033687;28;20466;-72
2021/10/28 23:48:22;;;;;;;1.25;1.15;;;;;;;;;;5040358;28;20955;-72
2021/10/28 23:50:48;;;;;;;4.20;2.60;;;;;;;;;;5040289;28;20933;-72
2021/10/28 23:53:14;;;;;;;6.10;2.60;;;;;;;;;;5060654;28;20178;-73
2021/10/28 23:55:40;;;;;;;1.90;1.47;;;;;;;;;;5054312;28;20889;-72
2021/10/28 23:58:06;;;;;;;2.97;1.50;;;;;;;;;;5053736;28;20395;-72
